createdAt,value
2022-11-04T00:04:28.343Z,3.30
2022-11-04T00:06:56.530Z,4.65
2022-11-04T00:09:31.349Z,3.90
2022-11-04T00:12:17.541Z,2.95
2022-11-04T00:14:51.488Z,3.35
2022-11-04T00:17:24.762Z,3.35
2022-11-04T00:20:21.379Z,3.47
2022-11-04T00:23:07.577Z,3.38
2022-11-04T00:26:00.363Z,2.85
2022-11-04T00:28:42.779Z,3.85
2022-11-04T00:31:35.349Z,2.75
2022-11-04T00:34:02.450Z,3.20
2022-11-04T00:36:36.381Z,3.28
2022-11-04T00:39:03.519Z,2.90
2022-11-04T00:41:30.742Z,3.25
2022-11-04T00:44:04.380Z,3.10
2022-11-04T00:46:39.585Z,3.20
2022-11-04T00:49:13.400Z,3.67
2022-11-04T00:51:40.712Z,3.10
2022-11-04T00:54:07.879Z,4.03
2022-11-04T00:56:44.403Z,2.90
2022-11-04T00:59:14.441Z,3.75
2022-11-04T01:01:42.124Z,3.13
2022-11-04T01:04:16.356Z,3.33
2022-11-04T01:06:43.525Z,3.88
2022-11-04T01:09:19.414Z,3.30
2022-11-04T01:11:46.667Z,3.15
2022-11-04T01:14:13.857Z,4.00
2022-11-04T01:16:47.381Z,3.92
2022-11-04T01:19:14.568Z,3.22
2022-11-04T01:21:41.810Z,3.83
2022-11-04T01:24:15.410Z,3.70
2022-11-04T01:26:42.663Z,3.30
2022-11-04T01:29:09.778Z,3.83
2022-11-04T01:31:43.385Z,3.75
2022-11-04T01:34:10.586Z,3.85
2022-11-04T01:36:44.402Z,4.38
2022-11-04T01:39:13.012Z,3.53
2022-11-04T01:41:40.358Z,4.07
2022-11-04T01:44:32.391Z,4.38
2022-11-04T01:47:06.664Z,3.60
2022-11-04T01:49:43.647Z,3.95
2022-11-04T01:52:13.288Z,3.90
2022-11-04T01:54:47.378Z,4.22
2022-11-04T01:57:16.742Z,4.93
2022-11-04T01:59:50.378Z,3.75
2022-11-04T02:02:17.604Z,3.95
2022-11-04T02:04:51.412Z,3.70
2022-11-04T02:07:18.648Z,4.10
2022-11-04T02:09:45.760Z,4.65
2022-11-04T02:12:38.378Z,3.45
2022-11-04T02:15:05.706Z,4.20
2022-11-04T02:17:39.516Z,3.40
2022-11-04T02:20:06.694Z,3.30
2022-11-04T02:22:59.435Z,4.30
2022-11-04T02:25:34.185Z,3.47
2022-11-04T02:28:07.414Z,4.38
2022-11-04T02:30:37.088Z,3.72
2022-11-04T02:33:07.271Z,4.18
2022-11-04T02:35:47.393Z,4.43
2022-11-04T02:38:26.453Z,3.50
2022-11-04T02:41:18.391Z,4.90
2022-11-04T02:44:03.220Z,3.90
2022-11-04T02:46:43.405Z,4.63
2022-11-04T02:49:15.972Z,4.60
2022-11-04T02:51:58.403Z,4.80
2022-11-04T02:54:41.186Z,4.45
2022-11-04T02:57:16.425Z,5.10
2022-11-04T03:00:21.270Z,4.75
2022-11-04T03:02:55.412Z,5.47
2022-11-04T03:05:33.180Z,5.82
2022-11-04T03:08:10.975Z,6.35
2022-11-04T03:10:42.378Z,4.80
2022-11-04T03:13:21.424Z,6.28
2022-11-04T03:16:14.915Z,6.30
2022-11-04T03:18:51.407Z,6.40
2022-11-04T03:21:20.188Z,6.80
2022-11-04T03:23:54.410Z,6.50
2022-11-04T03:26:21.486Z,5.88
2022-11-04T03:29:13.587Z,6.18
2022-11-04T03:31:56.229Z,5.82
2022-11-04T03:34:30.431Z,6.97
2022-11-04T03:36:57.917Z,6.68
2022-11-04T03:39:31.425Z,6.45
2022-11-04T03:42:00.079Z,7.20
2022-11-04T03:44:27.794Z,5.85
2022-11-04T03:47:01.402Z,7.22
2022-11-04T03:49:28.710Z,7.03
2022-11-04T03:52:02.427Z,9.13
2022-11-04T03:54:32.855Z,9.20
2022-11-04T03:57:25.441Z,7.85
2022-11-04T04:00:02.963Z,7.68
2022-11-04T04:02:55.553Z,9.30
2022-11-04T04:05:31.030Z,10.15
2022-11-04T04:08:10.913Z,9.25
2022-11-04T04:10:57.174Z,9.25
2022-11-04T04:13:31.450Z,9.75
2022-11-04T04:16:08.416Z,9.27
2022-11-04T04:18:39.712Z,7.90
2022-11-04T04:21:15.464Z,9.32
2022-11-04T04:24:02.678Z,9.27
2022-11-04T04:26:56.431Z,9.82
2022-11-04T04:29:24.529Z,8.90
2022-11-04T04:32:00.432Z,8.50
2022-11-04T04:34:28.833Z,8.23
2022-11-04T04:37:27.440Z,10.00
2022-11-04T04:40:18.503Z,7.83
2022-11-04T04:43:17.434Z,8.80
2022-11-04T04:46:08.437Z,9.30
2022-11-04T04:48:42.500Z,8.77
2022-11-04T04:51:10.040Z,8.70
2022-11-04T04:56:10.628Z,9.00
2022-11-04T04:58:44.552Z,8.50
2022-11-04T05:01:12.056Z,10.05
2022-11-04T05:06:18.581Z,8.25
2022-11-04T05:08:45.668Z,7.10
2022-11-04T05:11:13.109Z,7.68
2022-11-04T05:13:46.490Z,7.47
2022-11-04T05:16:20.594Z,5.57
2022-11-04T05:18:47.691Z,7.32
2022-11-04T05:21:15.801Z,5.25
2022-11-04T05:23:49.427Z,7.15
2022-11-04T05:26:16.767Z,7.63
2022-11-04T05:28:50.479Z,7.70
2022-11-04T05:31:17.924Z,8.10
2022-11-04T05:33:45.025Z,6.35
2022-11-04T05:36:22.450Z,7.35
2022-11-04T05:38:53.408Z,7.80
2022-11-04T05:41:32.445Z,6.63
2022-11-04T05:44:00.408Z,7.40
2022-11-04T05:46:47.594Z,7.13
2022-11-04T05:49:14.712Z,6.90
2022-11-04T05:51:42.002Z,5.78
2022-11-04T05:54:15.484Z,6.50
2022-11-04T05:56:42.784Z,6.30
2022-11-04T05:59:09.883Z,6.25
2022-11-04T06:01:45.521Z,7.05
2022-11-04T06:04:16.994Z,6.65
2022-11-04T06:06:50.492Z,6.90
2022-11-04T06:09:17.653Z,5.78
2022-11-04T06:11:45.375Z,6.13
2022-11-04T06:14:19.461Z,5.68
2022-11-04T06:16:46.704Z,5.40
2022-11-04T06:19:20.598Z,5.72
2022-11-04T06:21:47.777Z,5.00
2022-11-04T06:24:14.955Z,6.47
2022-11-04T06:26:48.470Z,6.93
2022-11-04T06:29:15.662Z,7.05
2022-11-04T06:31:49.609Z,6.13
2022-11-04T06:34:16.834Z,5.57
2022-11-04T06:36:43.935Z,6.32
2022-11-04T06:39:17.493Z,5.00
2022-11-04T06:41:47.458Z,4.35
2022-11-04T06:44:22.626Z,5.15
2022-11-04T06:47:02.865Z,6.50
2022-11-04T06:49:36.466Z,5.88
2022-11-04T06:52:10.627Z,5.80
2022-11-04T06:54:37.750Z,4.85
2022-11-04T06:57:05.006Z,5.10
2022-11-04T06:59:38.470Z,6.13
2022-11-04T07:02:05.769Z,5.63
2022-11-04T07:04:39.638Z,6.20
2022-11-04T07:07:06.929Z,5.10
2022-11-04T07:09:35.348Z,5.28
2022-11-04T07:12:08.479Z,6.18
2022-11-04T07:14:35.650Z,6.35
2022-11-04T07:17:09.711Z,4.47
2022-11-04T07:19:36.912Z,4.90
2022-11-04T07:22:04.049Z,4.82
2022-11-04T07:24:37.481Z,5.05
2022-11-04T07:27:06.289Z,5.18
2022-11-04T07:29:39.526Z,5.82
2022-11-04T07:32:06.818Z,4.15
2022-11-04T07:34:33.945Z,4.35
2022-11-04T07:37:07.496Z,5.18
2022-11-04T07:39:34.669Z,5.93
2022-11-04T07:42:08.536Z,4.75
2022-11-04T07:44:35.881Z,4.05
2022-11-04T07:47:15.478Z,5.30
2022-11-04T07:49:49.670Z,6.32
2022-11-04T07:52:16.852Z,4.65
2022-11-04T07:54:44.164Z,6.95
2022-11-04T07:57:17.505Z,4.72
2022-11-04T07:59:44.607Z,4.97
2022-11-04T08:02:24.807Z,5.80
2022-11-04T08:04:53.745Z,5.40
2022-11-04T08:07:27.522Z,5.97
2022-11-04T08:09:54.680Z,5.72
2022-11-04T08:12:24.094Z,5.35
2022-11-04T08:14:58.524Z,4.57
2022-11-04T08:17:26.029Z,4.72
2022-11-04T08:19:59.606Z,5.80
2022-11-04T08:22:31.796Z,6.53
2022-11-04T08:25:06.539Z,4.82
2022-11-04T08:27:34.879Z,5.47
2022-11-04T08:30:01.966Z,5.45
2022-11-04T08:32:35.756Z,4.78
2022-11-04T08:35:02.942Z,5.82
2022-11-04T08:37:30.034Z,5.32
2022-11-04T08:40:03.496Z,6.32
2022-11-04T08:42:30.810Z,6.35
2022-11-04T08:45:04.617Z,5.35
2022-11-04T08:47:38.741Z,4.82
2022-11-04T08:50:12.646Z,4.20
2022-11-04T08:52:39.861Z,5.60
2022-11-04T08:55:07.175Z,6.32
2022-11-04T08:57:40.571Z,5.80
2022-11-04T09:00:07.989Z,5.75
2022-11-04T09:02:41.787Z,5.75
2022-11-04T09:05:09.086Z,6.65
2022-11-04T09:07:37.517Z,6.10
2022-11-04T09:10:12.498Z,7.22
2022-11-04T09:12:39.702Z,5.95
2022-11-04T09:15:13.647Z,6.03
2022-11-04T09:17:41.051Z,6.30
2022-11-04T09:20:08.647Z,5.53
2022-11-04T09:25:13.136Z,5.72
2022-11-04T09:27:40.209Z,6.32
2022-11-04T09:30:14.538Z,5.20
2022-11-04T09:32:41.951Z,4.90
2022-11-04T09:35:09.433Z,5.95
2022-11-04T09:37:43.507Z,6.10
2022-11-04T09:40:15.667Z,6.35
2022-11-04T09:42:55.520Z,6.15
2022-11-04T09:45:24.777Z,6.03
2022-11-04T09:48:11.551Z,6.13
2022-11-04T09:50:49.319Z,6.28
2022-11-04T09:53:49.557Z,6.25
2022-11-04T09:56:19.734Z,6.03
2022-11-04T09:58:46.900Z,5.70
2022-11-04T10:01:20.678Z,6.30
2022-11-04T10:03:48.222Z,5.47
2022-11-04T10:06:24.546Z,6.70
2022-11-04T10:09:00.862Z,6.68
2022-11-04T17:48:17.750Z,12.68
2022-11-04T17:51:05.695Z,11.82
2022-11-04T17:53:32.887Z,13.17
2022-11-04T17:56:00.084Z,13.13
2022-11-04T17:58:36.648Z,12.85
2022-11-04T18:01:13.738Z,14.18
2022-11-04T18:03:47.806Z,12.65
2022-11-04T18:06:14.980Z,11.10
2022-11-04T18:08:42.155Z,12.90
2022-11-04T18:11:16.672Z,12.48
2022-11-04T18:13:50.820Z,13.05
2022-11-04T18:16:17.941Z,12.88
2022-11-04T18:18:45.204Z,12.73
2022-11-04T18:21:18.675Z,14.10
2022-11-04T18:23:45.819Z,12.32
2022-11-04T18:26:19.726Z,12.00
2022-11-04T18:28:47.049Z,12.20
2022-11-04T18:31:26.822Z,11.82
2022-11-04T18:33:54.066Z,11.52
2022-11-04T18:36:21.225Z,10.93
2022-11-04T18:38:54.671Z,12.70
2022-11-04T18:41:21.786Z,11.43
2022-11-04T18:43:55.770Z,10.55
2022-11-04T18:46:22.853Z,11.00
2022-11-04T18:49:10.861Z,10.38
2022-11-04T18:51:38.104Z,9.77
2022-11-04T18:54:05.940Z,10.73
2022-11-04T18:56:39.671Z,10.07
2022-11-04T18:59:09.432Z,10.90
2022-11-04T19:01:42.985Z,9.35
2022-11-04T19:04:10.385Z,10.82
2022-11-04T19:06:41.725Z,9.65
2022-11-04T19:12:22.920Z,9.43
2022-11-04T19:14:57.189Z,9.50
2022-11-04T19:17:25.227Z,9.18
2022-11-04T19:19:52.325Z,9.85
2022-11-04T19:22:25.688Z,10.48
2022-11-04T19:24:52.892Z,9.88
2022-11-04T19:27:29.719Z,9.82
2022-11-04T19:29:56.953Z,9.93
2022-11-04T19:32:24.094Z,9.73
2022-11-04T19:34:57.706Z,8.77
2022-11-04T19:37:24.949Z,9.10
2022-11-04T19:39:58.716Z,7.93
2022-11-04T19:42:44.582Z,8.48
2022-11-04T19:45:17.741Z,8.38
2022-11-04T19:47:44.941Z,8.70
2022-11-04T19:50:25.862Z,8.43
2022-11-04T19:52:53.040Z,7.50
2022-11-04T19:55:20.144Z,7.18
2022-11-04T19:57:53.709Z,7.82
2022-11-04T20:00:20.903Z,8.25
2022-11-04T20:02:54.734Z,8.35
2022-11-04T20:05:22.169Z,8.48
2022-11-04T20:07:54.163Z,8.02
2022-11-04T20:10:30.707Z,7.15
2022-11-04T20:13:16.955Z,7.35
2022-11-04T20:15:50.706Z,7.72
2022-11-04T20:18:17.860Z,7.15
2022-11-04T20:20:51.879Z,7.32
2022-11-04T20:23:19.039Z,7.57
2022-11-04T20:25:46.161Z,6.85
2022-11-04T20:28:19.704Z,6.80
2022-11-04T20:30:46.971Z,6.68
2022-11-04T20:33:20.891Z,7.30
2022-11-04T20:35:48.087Z,7.35
2022-11-04T20:38:15.346Z,6.20
2022-11-04T20:40:48.724Z,6.47
2022-11-04T20:43:16.172Z,8.02
2022-11-04T20:45:52.525Z,7.57
2022-11-04T20:48:47.713Z,6.68
2022-11-04T20:51:26.023Z,6.95
2022-11-04T20:53:56.007Z,5.65
2022-11-04T20:56:24.622Z,7.22
2022-11-04T20:58:59.682Z,6.13
2022-11-04T21:01:31.790Z,5.85
2022-11-04T21:04:15.882Z,5.05
2022-11-04T21:06:43.410Z,5.43
2022-11-04T21:11:45.722Z,4.03
2022-11-04T21:14:14.129Z,4.50
2022-11-04T21:16:47.737Z,4.13
2022-11-04T21:19:15.945Z,5.32
2022-11-04T21:21:50.845Z,4.63
2022-11-04T21:24:18.171Z,4.82
2022-11-04T21:26:45.826Z,4.18
2022-11-04T21:31:47.475Z,3.30
2022-11-04T21:34:20.878Z,3.47
2022-11-04T21:36:50.660Z,3.47
2022-11-04T21:39:17.865Z,3.15
2022-11-04T21:41:51.749Z,3.58
2022-11-04T21:44:18.939Z,3.78
2022-11-04T21:46:54.722Z,3.15
2022-11-04T21:49:41.786Z,3.30
2022-11-04T21:52:15.840Z,3.10
2022-11-04T21:54:43.044Z,2.70
2022-11-04T21:57:10.136Z,2.67
2022-11-04T21:59:43.721Z,2.25
2022-11-04T22:02:11.431Z,1.98
2022-11-04T22:07:11.888Z,1.55
2022-11-04T22:09:45.796Z,1.75
2022-11-04T22:12:12.920Z,2.00
2022-11-04T22:14:40.071Z,1.60
2022-11-04T22:17:13.767Z,2.30
2022-11-04T22:19:47.751Z,1.83
2022-11-04T22:22:14.936Z,2.08
2022-11-04T22:24:48.752Z,1.65
2022-11-04T22:27:15.919Z,2.60
2022-11-04T22:29:42.997Z,2.10
2022-11-04T22:32:16.745Z,2.10
2022-11-04T22:34:43.935Z,1.90
2022-11-04T22:37:17.878Z,2.67
2022-11-04T22:39:45.199Z,2.65
2022-11-04T22:42:12.324Z,2.45
2022-11-04T22:44:45.894Z,1.70
2022-11-04T22:47:13.057Z,1.85
2022-11-04T22:49:52.919Z,2.58
2022-11-04T22:52:20.250Z,1.95
2022-11-04T22:54:47.349Z,2.42
2022-11-04T22:57:20.783Z,2.40
2022-11-04T22:59:47.949Z,1.92
2022-11-04T23:02:15.180Z,1.58
2022-11-04T23:04:48.757Z,2.30
2022-11-04T23:07:15.927Z,2.20
2022-11-04T23:10:08.895Z,2.30
2022-11-04T23:12:54.630Z,1.63
2022-11-04T23:15:47.873Z,1.38
2022-11-04T23:18:33.859Z,1.35
2022-11-04T23:21:26.794Z,1.92
2022-11-04T23:24:12.943Z,1.60
2022-11-04T23:26:46.897Z,2.17
2022-11-04T23:29:33.622Z,1.58
2022-11-04T23:32:07.809Z,1.70
2022-11-04T23:34:53.964Z,2.25
2022-11-04T23:37:27.765Z,2.22
2022-11-04T23:40:01.785Z,2.17
2022-11-04T23:42:28.873Z,2.08
2022-11-04T23:45:21.787Z,2.35
2022-11-04T23:48:07.917Z,2.50
2022-11-04T23:51:07.790Z,2.30
2022-11-04T23:53:53.985Z,2.35
2022-11-04T23:56:45.780Z,1.70
2022-11-04T23:59:32.124Z,1.70
